createdAt,value
2019-05-05T00:01:45.065Z,99.70
2019-05-05T00:04:27.266Z,99.90
2019-05-05T00:06:56.813Z,99.90
2019-05-05T00:09:26.347Z,99.90
2019-05-05T00:12:14.685Z,99.90
2019-05-05T00:14:56.289Z,99.90
2019-05-05T00:17:26.371Z,99.90
2019-05-05T00:19:55.885Z,99.90
2019-05-05T00:22:25.428Z,99.90
2019-05-05T00:24:54.977Z,99.90
2019-05-05T00:27:25.421Z,99.90
2019-05-05T00:29:55.157Z,99.90
2019-05-05T00:32:24.767Z,99.90
2019-05-05T00:34:55.148Z,99.90
2019-05-05T00:37:25.680Z,99.90
2019-05-05T00:39:55.437Z,99.90
2019-05-05T00:42:24.964Z,99.90
2019-05-05T00:44:55.031Z,99.90
2019-05-05T00:47:38.963Z,99.90
2019-05-05T00:50:09.797Z,99.90
2019-05-05T00:52:39.431Z,99.90
2019-05-05T00:55:09.711Z,99.90
2019-05-05T00:57:39.261Z,99.90
2019-05-05T01:00:17.572Z,99.90
2019-05-05T01:02:50.930Z,99.90
2019-05-05T01:05:26.477Z,99.90
2019-05-05T01:07:56.013Z,99.90
2019-05-05T01:10:25.577Z,99.90
2019-05-05T01:12:55.233Z,99.90
2019-05-05T01:15:25.497Z,99.90
2019-05-05T01:17:55.402Z,99.90
2019-05-05T01:20:25.130Z,99.90
2019-05-05T01:22:55.360Z,99.90
2019-05-05T01:25:25.443Z,99.90
2019-05-05T01:27:55.141Z,99.90
2019-05-05T01:30:29.500Z,99.90
2019-05-05T01:33:06.039Z,99.90
2019-05-05T01:35:35.647Z,99.90
2019-05-05T01:38:10.540Z,99.90
2019-05-05T01:40:46.541Z,99.90
2019-05-05T01:43:16.095Z,99.90
2019-05-05T01:45:46.400Z,99.90
2019-05-05T01:48:15.923Z,99.90
2019-05-05T01:50:45.501Z,99.90
2019-05-05T01:53:15.297Z,99.90
2019-05-05T01:55:45.277Z,99.90
2019-05-05T01:58:15.360Z,99.90
2019-05-05T02:00:45.317Z,99.90
2019-05-05T02:03:15.024Z,99.90
2019-05-05T02:05:45.248Z,99.90
2019-05-05T02:08:15.402Z,99.90
2019-05-05T02:10:46.248Z,99.90
2019-05-05T02:13:16.193Z,99.90
2019-05-05T02:15:47.426Z,99.90
2019-05-05T02:18:18.830Z,99.90
2019-05-05T02:21:08.440Z,99.90
2019-05-05T02:23:38.485Z,99.90
2019-05-05T02:26:08.380Z,99.90
2019-05-05T02:28:45.326Z,99.90
2019-05-05T02:31:31.673Z,99.90
2019-05-05T02:34:01.444Z,99.90
2019-05-05T02:36:31.001Z,99.90
2019-05-05T02:39:00.554Z,99.90
2019-05-05T02:41:34.619Z,99.90
2019-05-05T02:44:05.121Z,99.90
2019-05-05T02:46:57.277Z,99.90
2019-05-05T02:49:27.173Z,99.90
2019-05-05T02:51:57.204Z,99.90
2019-05-05T02:54:28.173Z,99.90
2019-05-05T02:56:57.771Z,99.90
2019-05-05T02:59:35.430Z,99.90
2019-05-05T03:02:11.440Z,99.90
2019-05-05T03:04:44.229Z,99.90
2019-05-05T03:07:15.888Z,99.90
2019-05-05T03:09:46.493Z,99.90
2019-05-05T03:12:17.869Z,99.90
2019-05-05T03:14:49.053Z,99.90
2019-05-05T03:17:19.421Z,99.90
2019-05-05T03:19:49.975Z,99.90
2019-05-05T03:22:20.010Z,99.90
2019-05-05T03:24:49.973Z,99.90
2019-05-05T03:27:20.089Z,99.90
2019-05-05T03:29:50.131Z,99.90
2019-05-05T03:32:20.442Z,99.90
2019-05-05T03:34:50.371Z,99.90
2019-05-05T03:37:20.029Z,99.90
2019-05-05T03:39:55.216Z,99.90
2019-05-05T03:42:41.469Z,99.90
2019-05-05T03:45:15.364Z,99.90
2019-05-05T03:47:45.130Z,99.90
2019-05-05T03:50:14.846Z,99.90
2019-05-05T03:52:45.313Z,99.90
2019-05-05T03:55:14.987Z,99.90
2019-05-05T03:57:44.730Z,99.90
2019-05-05T04:00:24.043Z,99.90
2019-05-05T04:02:58.607Z,99.90
2019-05-05T04:05:36.009Z,99.90
2019-05-05T04:08:05.625Z,99.90
2019-05-05T04:10:35.348Z,99.90
2019-05-05T04:13:04.987Z,99.90
2019-05-05T04:15:35.955Z,99.90
2019-05-05T04:18:16.724Z,99.90
2019-05-05T04:20:46.308Z,99.90
2019-05-05T04:23:15.869Z,99.90
2019-05-05T04:25:45.465Z,99.90
2019-05-05T04:28:15.032Z,99.90
2019-05-05T04:30:45.432Z,99.90
2019-05-05T04:33:16.004Z,99.90
2019-05-05T04:35:45.553Z,99.90
2019-05-05T04:38:24.341Z,99.90
2019-05-05T04:40:56.114Z,99.90
2019-05-05T04:43:27.549Z,99.90
2019-05-05T04:45:57.932Z,99.90
2019-05-05T04:48:36.251Z,99.90
2019-05-05T04:51:13.759Z,99.90
2019-05-05T04:54:00.739Z,99.90
2019-05-05T04:56:30.473Z,99.90
2019-05-05T04:58:59.995Z,99.90
2019-05-05T05:01:29.614Z,99.90
2019-05-05T05:04:18.384Z,99.90
2019-05-05T05:06:50.789Z,99.60
2019-05-05T05:09:20.307Z,99.60
2019-05-05T05:11:49.843Z,99.30
2019-05-05T05:14:19.375Z,99.30
2019-05-05T05:16:49.364Z,99.90
2019-05-05T05:19:18.916Z,99.90
2019-05-05T05:21:59.392Z,99.20
2019-05-05T05:24:19.700Z,99.10
2019-05-05T05:26:49.273Z,99.90
2019-05-05T05:29:18.857Z,99.90
2019-05-05T05:31:48.372Z,99.50
2019-05-05T05:34:17.933Z,99.80
2019-05-05T05:36:47.541Z,99.40
2019-05-05T05:39:34.290Z,99.30
2019-05-05T05:42:04.532Z,99.10
2019-05-05T05:45:05.804Z,99.40
2019-05-05T05:47:54.464Z,98.80
2019-05-05T05:50:37.236Z,99.40
2019-05-05T05:53:06.777Z,98.70
2019-05-05T05:55:36.299Z,99.40
2019-05-05T05:58:05.868Z,98.60
2019-05-05T06:00:35.491Z,99.20
2019-05-05T06:03:05.045Z,99.50
2019-05-05T06:05:35.120Z,98.00
2019-05-05T06:08:04.918Z,98.30
2019-05-05T06:10:34.551Z,98.20
2019-05-05T06:13:04.321Z,97.10
2019-05-05T06:15:34.288Z,97.00
2019-05-05T06:18:04.751Z,98.10
2019-05-05T06:20:34.622Z,98.50
2019-05-05T06:23:05.357Z,97.50
2019-05-05T06:25:37.964Z,97.50
2019-05-05T06:28:06.160Z,97.70
2019-05-05T06:30:35.724Z,97.50
2019-05-05T06:33:06.212Z,97.50
2019-05-05T06:35:35.792Z,97.30
2019-05-05T06:38:05.355Z,96.90
2019-05-05T06:40:48.661Z,96.50
2019-05-05T06:43:40.587Z,96.60
2019-05-05T06:46:11.694Z,96.10
2019-05-05T06:48:41.219Z,95.90
2019-05-05T06:51:10.804Z,96.00
2019-05-05T06:53:40.360Z,95.10
2019-05-05T06:56:09.888Z,96.00
2019-05-05T06:58:39.453Z,96.00
2019-05-05T07:01:08.996Z,96.60
2019-05-05T07:03:38.611Z,96.10
2019-05-05T07:06:08.163Z,95.50
2019-05-05T07:08:37.767Z,95.40
2019-05-05T07:11:07.368Z,94.80
2019-05-05T07:13:37.946Z,94.30
2019-05-05T07:16:07.483Z,93.70
2019-05-05T07:18:37.115Z,94.30
2019-05-05T07:21:06.802Z,94.10
2019-05-05T07:23:36.433Z,93.90
2019-05-05T07:26:06.169Z,93.20
2019-05-05T07:28:35.744Z,93.70
2019-05-05T07:31:05.304Z,93.20
2019-05-05T07:33:34.899Z,91.90
2019-05-05T07:36:34.612Z,92.00
2019-05-05T07:39:06.368Z,91.80
2019-05-05T07:41:36.033Z,93.00
2019-05-05T07:44:05.623Z,92.50
2019-05-05T07:46:35.161Z,91.50
2019-05-05T07:49:04.708Z,90.30
2019-05-05T07:51:34.256Z,90.80
2019-05-05T07:54:04.053Z,91.20
2019-05-05T07:56:34.369Z,90.80
2019-05-05T07:59:04.233Z,90.30
2019-05-05T08:01:33.958Z,88.40
2019-05-05T08:04:04.516Z,87.10
2019-05-05T08:06:35.360Z,85.80
2019-05-05T08:09:06.647Z,83.60
2019-05-05T08:11:37.464Z,86.40
2019-05-05T08:14:07.001Z,86.40
2019-05-05T08:17:01.637Z,85.90
2019-05-05T08:19:35.004Z,83.90
2019-05-05T08:22:04.673Z,85.10
2019-05-05T08:25:05.710Z,85.10
2019-05-05T08:27:46.825Z,86.50
2019-05-05T08:30:24.411Z,82.50
2019-05-05T08:32:54.616Z,81.70
2019-05-05T08:35:24.264Z,78.60
2019-05-05T08:37:54.327Z,80.00
2019-05-05T08:40:24.123Z,79.60
2019-05-05T08:42:54.024Z,78.60
2019-05-05T08:45:26.643Z,79.90
2019-05-05T08:47:55.177Z,75.20
2019-05-05T08:50:27.077Z,74.20
2019-05-05T08:52:56.276Z,77.50
2019-05-05T08:55:28.430Z,76.70
2019-05-05T08:57:57.215Z,77.90
2019-05-05T09:00:26.796Z,79.30
2019-05-05T09:02:56.376Z,75.70
2019-05-05T09:05:25.925Z,71.00
2019-05-05T09:07:55.580Z,71.70
2019-05-05T09:10:25.138Z,72.60
2019-05-05T09:12:54.689Z,70.40
2019-05-05T09:15:24.472Z,72.60
2019-05-05T09:17:54.648Z,70.10
2019-05-05T09:20:25.485Z,69.10
2019-05-05T09:22:57.377Z,70.30
2019-05-05T09:25:37.073Z,72.60
2019-05-05T09:28:14.643Z,67.70
2019-05-05T09:30:46.000Z,66.30
2019-05-05T09:33:18.272Z,71.30
2019-05-05T09:35:46.953Z,62.40
2019-05-05T09:38:17.106Z,62.10
2019-05-05T09:40:47.023Z,60.40
2019-05-05T09:43:16.743Z,63.00
2019-05-05T09:45:46.275Z,62.00
2019-05-05T09:48:15.928Z,59.30
2019-05-05T09:50:45.524Z,59.40
2019-05-05T09:53:15.173Z,64.00
2019-05-05T09:55:44.740Z,60.70
2019-05-05T09:58:14.374Z,55.70
2019-05-05T10:00:45.584Z,58.00
2019-05-05T10:03:15.451Z,60.80
2019-05-05T10:05:45.317Z,60.50
2019-05-05T10:08:14.937Z,59.30
2019-05-05T10:10:44.498Z,60.90
2019-05-05T10:13:15.182Z,60.70
2019-05-05T10:15:44.753Z,58.80
2019-05-05T10:18:14.357Z,63.40
2019-05-05T10:20:43.936Z,58.40
2019-05-05T10:23:14.308Z,60.40
2019-05-05T10:25:47.227Z,56.40
2019-05-05T10:28:16.789Z,56.10
2019-05-05T10:30:46.463Z,55.00
2019-05-05T10:33:16.133Z,55.90
2019-05-05T10:35:45.688Z,55.10
2019-05-05T10:38:15.297Z,54.80
2019-05-05T10:40:46.678Z,54.90
2019-05-05T10:43:16.156Z,55.10
2019-05-05T10:45:45.729Z,54.90
2019-05-05T10:48:15.330Z,58.10
2019-05-05T10:50:44.915Z,51.70
2019-05-05T10:53:14.617Z,53.60
2019-05-05T10:55:45.000Z,53.40
2019-05-05T10:58:14.762Z,54.20
2019-05-05T11:00:54.492Z,55.20
2019-05-05T11:03:24.398Z,56.30
2019-05-05T11:05:54.182Z,57.40
2019-05-05T11:08:24.440Z,56.40
2019-05-05T11:10:54.003Z,55.30
2019-05-05T11:13:24.030Z,54.30
2019-05-05T11:15:54.705Z,54.80
2019-05-05T11:18:24.473Z,55.60
2019-05-05T11:20:54.855Z,55.50
2019-05-05T11:23:25.019Z,53.30
2019-05-05T11:25:54.701Z,53.00
2019-05-05T11:28:24.300Z,51.50
2019-05-05T11:30:54.220Z,50.60
2019-05-05T11:33:34.667Z,49.70
2019-05-05T11:36:24.015Z,50.20
2019-05-05T11:38:53.830Z,49.80
2019-05-05T11:41:24.295Z,46.50
2019-05-05T11:43:54.033Z,48.40
2019-05-05T11:46:24.688Z,48.60
2019-05-05T11:48:55.484Z,45.20
2019-05-05T11:51:25.146Z,46.70
2019-05-05T11:53:54.683Z,44.80
2019-05-05T11:56:24.277Z,48.80
2019-05-05T11:58:54.644Z,52.30
2019-05-05T12:01:25.365Z,54.80
2019-05-05T12:03:54.938Z,55.50
2019-05-05T12:06:24.769Z,56.30
2019-05-05T12:08:54.311Z,55.60
2019-05-05T12:11:24.093Z,54.50
2019-05-05T12:13:54.612Z,56.10
2019-05-05T12:16:30.358Z,54.60
2019-05-05T12:19:01.179Z,53.90
2019-05-05T12:21:30.746Z,51.60
2019-05-05T12:24:03.854Z,51.90
2019-05-05T12:26:50.042Z,51.80
2019-05-05T12:29:24.568Z,50.60
2019-05-05T12:31:54.950Z,48.90
2019-05-05T12:34:24.548Z,49.50
2019-05-05T12:36:54.209Z,50.20
2019-05-05T12:39:23.828Z,51.90
2019-05-05T12:41:54.309Z,53.30
2019-05-05T12:44:34.095Z,52.80
2019-05-05T12:47:20.296Z,53.30
2019-05-05T12:49:54.407Z,52.70
2019-05-05T12:52:24.637Z,53.50
2019-05-05T12:54:54.749Z,52.20
2019-05-05T12:57:24.400Z,53.70
2019-05-05T12:59:53.935Z,54.00
2019-05-05T13:02:23.614Z,52.40
2019-05-05T13:04:53.597Z,52.70
2019-05-05T13:07:24.313Z,52.20
2019-05-05T13:09:54.513Z,53.20
2019-05-05T13:12:24.244Z,52.50
2019-05-05T13:14:54.543Z,51.40
2019-05-05T13:17:26.576Z,51.50
2019-05-05T13:20:09.548Z,52.60
2019-05-05T13:23:11.714Z,52.80
2019-05-05T13:25:59.638Z,51.70
2019-05-05T13:28:29.281Z,53.10
2019-05-05T13:30:58.858Z,51.20
2019-05-05T13:33:28.465Z,53.30
2019-05-05T13:35:57.996Z,52.10
2019-05-05T13:38:27.573Z,52.40
2019-05-05T13:40:57.103Z,49.90
2019-05-05T13:43:26.688Z,50.80
2019-05-05T13:46:10.312Z,52.20
2019-05-05T13:48:39.857Z,50.30
2019-05-05T13:51:11.032Z,49.70
2019-05-05T13:53:41.097Z,49.80
2019-05-05T13:56:15.737Z,48.90
2019-05-05T13:58:46.649Z,46.60
2019-05-05T14:01:16.700Z,46.10
2019-05-05T14:03:47.818Z,43.50
2019-05-05T14:06:17.776Z,42.40
2019-05-05T14:08:47.918Z,43.40
2019-05-05T14:11:17.867Z,45.80
2019-05-05T14:13:48.477Z,48.00
2019-05-05T14:16:18.269Z,48.40
2019-05-05T14:18:47.835Z,47.30
2019-05-05T14:21:17.424Z,49.20
2019-05-05T14:24:10.950Z,49.40
2019-05-05T14:26:41.689Z,48.40
2019-05-05T14:29:14.681Z,48.70
2019-05-05T14:31:44.533Z,48.80
2019-05-05T14:34:23.294Z,47.10
2019-05-05T14:37:11.206Z,47.80
2019-05-05T14:39:40.881Z,47.50
2019-05-05T14:42:10.462Z,48.40
2019-05-05T14:44:39.981Z,49.30
2019-05-05T14:47:09.541Z,49.90
2019-05-05T14:49:39.095Z,50.30
2019-05-05T14:52:08.725Z,51.10
2019-05-05T14:54:38.268Z,52.50
2019-05-05T14:57:07.812Z,52.40
2019-05-05T14:59:37.397Z,52.80
2019-05-05T15:02:06.919Z,53.70
2019-05-05T15:04:38.177Z,52.90
2019-05-05T15:07:14.371Z,51.20
2019-05-05T15:09:57.457Z,50.40
2019-05-05T15:12:37.245Z,51.70
2019-05-05T15:15:08.823Z,48.40
2019-05-05T15:17:38.412Z,47.10
2019-05-05T15:20:09.385Z,48.90
2019-05-05T15:22:38.963Z,48.10
2019-05-05T15:25:08.585Z,49.00
2019-05-05T15:27:38.765Z,47.50
2019-05-05T15:30:09.792Z,47.70
2019-05-05T15:32:39.361Z,48.00
2019-05-05T15:35:09.063Z,48.80
2019-05-05T15:37:38.611Z,49.10
2019-05-05T15:40:08.505Z,49.90
2019-05-05T15:42:38.055Z,50.10
2019-05-05T15:45:07.876Z,51.50
2019-05-05T15:47:37.448Z,51.50
2019-05-05T15:50:08.645Z,51.20
2019-05-05T15:52:39.152Z,51.80
2019-05-05T15:55:09.181Z,52.00
2019-05-05T15:57:38.828Z,52.30
2019-05-05T16:00:09.940Z,52.70
2019-05-05T16:02:39.582Z,53.10
2019-05-05T16:05:09.525Z,53.10
2019-05-05T16:07:39.103Z,53.60
2019-05-05T16:10:08.917Z,52.80
2019-05-05T16:12:39.738Z,52.00
2019-05-05T16:15:28.721Z,51.60
2019-05-05T16:18:13.722Z,49.70
2019-05-05T16:20:48.799Z,49.60
2019-05-05T16:23:22.194Z,47.90
2019-05-05T16:25:51.746Z,48.70
2019-05-05T16:28:22.256Z,48.10
2019-05-05T16:30:53.373Z,45.00
2019-05-05T16:33:24.153Z,46.20
2019-05-05T16:35:55.089Z,44.70
2019-05-05T16:38:24.649Z,45.10
2019-05-05T16:40:54.185Z,44.30
2019-05-05T16:43:24.696Z,45.30
2019-05-05T16:45:54.488Z,46.70
2019-05-05T16:48:25.747Z,47.10
2019-05-05T16:50:56.499Z,48.20
2019-05-05T16:53:36.249Z,47.00
2019-05-05T16:56:08.780Z,47.80
2019-05-05T16:58:38.367Z,47.50
2019-05-05T17:01:11.820Z,47.90
2019-05-05T17:03:45.456Z,49.40
2019-05-05T17:06:14.041Z,48.60
2019-05-05T17:08:44.442Z,48.30
2019-05-05T17:11:15.083Z,48.30
2019-05-05T17:13:54.479Z,50.20
2019-05-05T17:16:35.266Z,50.20
2019-05-05T17:19:14.216Z,50.80
2019-05-05T17:22:01.684Z,52.30
2019-05-05T17:24:31.280Z,52.60
2019-05-05T17:27:00.905Z,53.00
2019-05-05T17:29:30.519Z,52.90
2019-05-05T17:32:00.812Z,53.90
2019-05-05T17:34:30.415Z,54.40
2019-05-05T17:37:00.097Z,54.10
2019-05-05T17:39:34.414Z,54.00
2019-05-05T17:42:28.627Z,54.60
2019-05-05T17:45:11.684Z,53.30
2019-05-05T17:47:49.178Z,54.50
2019-05-05T17:50:26.060Z,55.50
2019-05-05T17:53:03.086Z,56.10
2019-05-05T17:55:34.996Z,56.70
2019-05-05T17:58:05.390Z,56.50
2019-05-05T18:00:41.104Z,56.20
2019-05-05T18:03:11.801Z,56.50
2019-05-05T18:05:56.117Z,56.50
2019-05-05T18:08:54.099Z,56.70
2019-05-05T18:11:32.101Z,56.70
2019-05-05T18:14:05.631Z,57.70
2019-05-05T18:16:35.284Z,58.10
2019-05-05T18:19:04.961Z,58.30
2019-05-05T18:21:35.611Z,57.70
2019-05-05T18:24:05.279Z,58.10
2019-05-05T18:26:34.877Z,59.90
2019-05-05T18:29:04.689Z,59.10
2019-05-05T18:31:34.258Z,59.20
2019-05-05T18:34:05.003Z,60.40
2019-05-05T18:36:34.586Z,60.50
2019-05-05T18:39:06.035Z,62.10
2019-05-05T18:41:44.030Z,62.50
2019-05-05T18:44:21.061Z,63.80
2019-05-05T18:47:11.698Z,65.10
2019-05-05T18:49:40.000Z,64.10
2019-05-05T18:52:13.888Z,65.30
2019-05-05T18:54:43.880Z,67.70
2019-05-05T18:57:14.401Z,66.00
2019-05-05T18:59:44.775Z,66.40
2019-05-05T19:02:34.529Z,67.30
2019-05-05T19:05:41.388Z,67.60
2019-05-05T19:08:51.832Z,68.40
2019-05-05T19:11:11.556Z,68.90
2019-05-05T19:13:41.289Z,70.00
2019-05-05T19:16:11.020Z,70.60
2019-05-05T19:18:40.620Z,70.40
2019-05-05T19:21:16.870Z,70.60
2019-05-05T19:23:46.507Z,70.70
2019-05-05T19:26:16.796Z,71.60
2019-05-05T19:28:49.971Z,71.50
2019-05-05T19:31:17.795Z,71.60
2019-05-05T19:33:55.625Z,71.70
2019-05-05T19:36:24.863Z,72.40
2019-05-05T19:38:55.998Z,72.30
2019-05-05T19:41:25.607Z,74.30
2019-05-05T19:43:55.370Z,77.30
2019-05-05T19:46:34.606Z,75.30
2019-05-05T19:49:17.304Z,74.60
2019-05-05T19:51:47.524Z,79.70
2019-05-05T19:54:17.085Z,84.20
2019-05-05T19:56:47.716Z,86.30
2019-05-05T19:59:17.324Z,85.90
2019-05-05T20:01:47.009Z,86.80
2019-05-05T20:04:16.826Z,86.20
2019-05-05T20:06:46.395Z,86.90
2019-05-05T20:09:15.972Z,86.80
2019-05-05T20:11:45.601Z,84.60
2019-05-05T20:14:15.384Z,85.80
2019-05-05T20:17:04.502Z,86.80
2019-05-05T20:19:39.562Z,87.30
2019-05-05T20:22:09.410Z,87.40
2019-05-05T20:24:39.124Z,87.70
2019-05-05T20:27:08.794Z,86.80
2019-05-05T20:29:38.409Z,86.60
2019-05-05T20:32:08.000Z,86.80
2019-05-05T20:34:50.497Z,86.50
2019-05-05T20:37:23.848Z,86.60
2019-05-05T20:39:56.803Z,87.50
2019-05-05T20:42:26.458Z,87.90
2019-05-05T20:44:56.234Z,89.00
2019-05-05T20:47:25.857Z,88.20
2019-05-05T20:49:55.482Z,89.50
2019-05-05T20:52:25.107Z,89.40
2019-05-05T20:54:54.730Z,88.40
2019-05-05T20:57:24.466Z,89.80
2019-05-05T20:59:54.059Z,90.10
2019-05-05T21:02:24.322Z,88.40
2019-05-05T21:04:54.225Z,88.40
2019-05-05T21:07:26.421Z,88.00
2019-05-05T21:09:55.356Z,89.80
2019-05-05T21:12:39.171Z,90.90
2019-05-05T21:14:56.392Z,90.80
2019-05-05T21:17:27.000Z,90.60
2019-05-05T21:19:56.701Z,90.60
2019-05-05T21:22:33.801Z,90.50
2019-05-05T21:25:04.853Z,91.10
2019-05-05T21:27:34.177Z,91.90
2019-05-05T21:30:04.182Z,91.60
2019-05-05T21:32:34.111Z,91.70
2019-05-05T21:35:04.115Z,91.50
2019-05-05T21:37:34.092Z,90.80
2019-05-05T21:40:04.702Z,90.70
2019-05-05T21:42:35.003Z,90.90
2019-05-05T21:45:05.265Z,90.30
2019-05-05T21:47:34.921Z,90.10
2019-05-05T21:50:06.219Z,89.50
2019-05-05T21:52:44.116Z,89.60
2019-05-05T21:55:43.901Z,89.60
2019-05-05T21:58:24.712Z,88.90
2019-05-05T22:01:11.954Z,88.90
2019-05-05T22:03:41.743Z,90.10
2019-05-05T22:06:11.474Z,89.30
2019-05-05T22:08:41.167Z,90.50
2019-05-05T22:11:10.857Z,89.80
2019-05-05T22:13:40.520Z,90.20
2019-05-05T22:16:10.294Z,90.30
2019-05-05T22:18:39.936Z,91.20
2019-05-05T22:21:21.437Z,90.90
2019-05-05T22:24:09.177Z,90.40
2019-05-05T22:26:38.813Z,90.20
2019-05-05T22:29:08.534Z,90.00
2019-05-05T22:31:38.145Z,89.60
2019-05-05T22:34:07.848Z,89.90
2019-05-05T22:36:37.504Z,90.00
2019-05-05T22:39:08.879Z,90.10
2019-05-05T22:41:38.596Z,89.80
2019-05-05T22:44:08.403Z,90.20
2019-05-05T22:46:38.344Z,90.40
2019-05-05T22:49:08.093Z,90.90
2019-05-05T22:51:37.774Z,90.20
2019-05-05T22:54:08.135Z,90.00
2019-05-05T22:56:37.957Z,90.20
2019-05-05T22:59:07.640Z,89.20
2019-05-05T23:01:37.251Z,89.90
2019-05-05T23:04:31.192Z,90.20
2019-05-05T23:07:04.659Z,90.50
2019-05-05T23:09:34.245Z,90.20
2019-05-05T23:12:04.291Z,90.10
2019-05-05T23:14:34.361Z,90.50
2019-05-05T23:17:11.885Z,90.50
2019-05-05T23:19:46.135Z,90.40
2019-05-05T23:22:25.961Z,90.30
2019-05-05T23:25:00.270Z,90.20
2019-05-05T23:27:54.581Z,90.60
2019-05-05T23:30:37.878Z,91.30
2019-05-05T23:32:55.632Z,90.90
2019-05-05T23:35:25.190Z,90.90
2019-05-05T23:37:55.365Z,90.40
2019-05-05T23:40:27.126Z,90.60
2019-05-05T23:42:56.718Z,90.60
2019-05-05T23:45:26.294Z,91.10
2019-05-05T23:47:55.832Z,91.10
2019-05-05T23:50:25.413Z,91.20
2019-05-05T23:52:54.948Z,91.40
2019-05-05T23:55:25.527Z,91.30
2019-05-05T23:57:55.115Z,91.70
